Accueil
METAR-TAF:

METAR-TAF

Aéroports :

Aéroport Sandro-Pertini de Turin Caselle

Turin, Italie

latitude: 45-13N, longitude: 007-39E, altitude: 301 m

Observation

Le bulletin a été fait il y a 30 minutes, à 00:50 UTC
Vent 7 kt de ouest/nord-ouest
Température 16°C
Humidité 63%
Pression 1017 hPa
Visibilité 10 km ou plus
Nuages fragmentés à une hauteur de 9000 ft

METAR: LIMF 210050Z 29007KT 9999 BKN090 16/09 Q1017

Heure: 03:20 (01:20 UTC)

Prévision

Le bulletin a été fait il y a 2 heures et 20 minutes, à 23:00 UTC
Prévision valable du 21 à 00 UTC au 21 à 24 UTC
Vent 5 kt de direction variable
Visibilité 10 km ou plus
Nuages fragmentés à une hauteur de 5000 ft
Temporairement
du 21 à 00 UTC au 21 à 06 UTC
Visibilité: 4000 m
orage, pluie

TAF: LIMF 202300Z 2100/2124 VRB05KT 9999 BKN050 TEMPO 2100/2106 4000 TSRA

Observations et prévisions météorologiques de plus de 4000 aéroports (messages METAR et TAF).

Les stations disponibles sont représentées par des disques jaunes et rouges sur la carte.

Passer la souris dessus pour voir le nom de la station.

Cliquer dessus pour voir les observations et prévisions météorologiques.

Pour changer de carte: cliquez sur les boutons verts avec une croix noire pour zoomer, sur le bouton vert avec un tiret pour effectuer un zoom arrière, ou sur les flèches vertes pour les cartes adjacentes.


METAR-TAF: